sensor_id;sensor_type;location;lat;lon;timestamp;pressure;altitude;pressure_sealevel;temperature;humidity
63006;BME280;53704;52.532;6.426;2023-12-28T00:02:24;100686.03;;;7.01;100.00
63006;BME280;53704;52.532;6.426;2023-12-28T00:04:49;100695.47;;;7.05;100.00
63006;BME280;53704;52.532;6.426;2023-12-28T00:07:15;100685.31;;;7.09;100.00
63006;BME280;53704;52.532;6.426;2023-12-28T00:09:40;100676.16;;;7.02;100.00
63006;BME280;53704;52.532;6.426;2023-12-28T00:12:06;100684.19;;;7.02;100.00
63006;BME280;53704;52.532;6.426;2023-12-28T00:14:31;100700.97;;;7.04;100.00
63006;BME280;53704;52.532;6.426;2023-12-28T00:16:57;100701.13;;;7.02;100.00
63006;BME280;53704;52.532;6.426;2023-12-28T00:19:22;100705.47;;;7.03;100.00
63006;BME280;53704;52.532;6.426;2023-12-28T00:21:49;100717.88;;;7.04;100.00
63006;BME280;53704;52.532;6.426;2023-12-28T00:24:15;100715.47;;;7.11;100.00
63006;BME280;53704;52.532;6.426;2023-12-28T00:26:41;100728.28;;;7.07;100.00
63006;BME280;53704;52.532;6.426;2023-12-28T00:29:06;100728.97;;;7.10;100.00
63006;BME280;53704;52.532;6.426;2023-12-28T00:31:32;100738.72;;;7.11;100.00
63006;BME280;53704;52.532;6.426;2023-12-28T00:33:58;100736.44;;;7.16;100.00
63006;BME280;53704;52.532;6.426;2023-12-28T00:36:23;100744.63;;;7.14;100.00
63006;BME280;53704;52.532;6.426;2023-12-28T00:38:50;100747.44;;;7.13;100.00
63006;BME280;53704;52.532;6.426;2023-12-28T00:41:16;100737.00;;;7.10;100.00
63006;BME280;53704;52.532;6.426;2023-12-28T00:43:41;100738.72;;;7.11;100.00
63006;BME280;53704;52.532;6.426;2023-12-28T00:46:06;100747.88;;;7.08;100.00
63006;BME280;53704;52.532;6.426;2023-12-28T00:48:32;100760.00;;;7.12;100.00
63006;BME280;53704;52.532;6.426;2023-12-28T00:50:57;100770.00;;;7.10;100.00
63006;BME280;53704;52.532;6.426;2023-12-28T00:53:25;100754.78;;;7.11;100.00
63006;BME280;53704;52.532;6.426;2023-12-28T00:55:51;100765.78;;;7.07;100.00
63006;BME280;53704;52.532;6.426;2023-12-28T00:58:16;100758.44;;;7.10;100.00
63006;BME280;53704;52.532;6.426;2023-12-28T01:00:42;100750.00;;;7.04;100.00
63006;BME280;53704;52.532;6.426;2023-12-28T01:03:07;100742.50;;;7.08;100.00
63006;BME280;53704;52.532;6.426;2023-12-28T01:05:33;100751.13;;;7.02;100.00
63006;BME280;53704;52.532;6.426;2023-12-28T01:07:58;100758.72;;;7.06;100.00
63006;BME280;53704;52.532;6.426;2023-12-28T01:10:24;100759.28;;;7.10;100.00
63006;BME280;53704;52.532;6.426;2023-12-28T01:12:49;100751.13;;;7.02;100.00
63006;BME280;53704;52.532;6.426;2023-12-28T01:15:15;100764.06;;;7.06;100.00
63006;BME280;53704;52.532;6.426;2023-12-28T01:17:42;100762.13;;;7.09;100.00
63006;BME280;53704;52.532;6.426;2023-12-28T01:20:08;100759.56;;;7.17;100.00
63006;BME280;53704;52.532;6.426;2023-12-28T01:22:34;100764.91;;;7.17;100.00
63006;BME280;53704;52.532;6.426;2023-12-28T01:25:00;100769.13;;;7.19;100.00
63006;BME280;53704;52.532;6.426;2023-12-28T01:27:25;100761.56;;;7.15;100.00
63006;BME280;53704;52.532;6.426;2023-12-28T01:29:51;100769.25;;;7.18;100.00
63006;BME280;53704;52.532;6.426;2023-12-28T01:32:16;100766.03;;;7.14;100.00
63006;BME280;53704;52.532;6.426;2023-12-28T01:34:42;100776.59;;;7.16;100.00
63006;BME280;53704;52.532;6.426;2023-12-28T01:37:08;100775.34;;;7.20;100.00
63006;BME280;53704;52.532;6.426;2023-12-28T01:39:33;100778.56;;;7.23;100.00
63006;BME280;53704;52.532;6.426;2023-12-28T01:41:59;100794.50;;;7.25;100.00
63006;BME280;53704;52.532;6.426;2023-12-28T01:44:24;100790.69;;;7.28;100.00
63006;BME280;53704;52.532;6.426;2023-12-28T01:46:50;100790.97;;;7.24;100.00
63006;BME280;53704;52.532;6.426;2023-12-28T01:49:15;100793.22;;;7.19;100.00
63006;BME280;53704;52.532;6.426;2023-12-28T01:51:42;100797.72;;;7.29;100.00
63006;BME280;53704;52.532;6.426;2023-12-28T01:54:08;100789.00;;;7.27;100.00
63006;BME280;53704;52.532;6.426;2023-12-28T01:56:34;100789.41;;;7.32;100.00
63006;BME280;53704;52.532;6.426;2023-12-28T01:59:00;100792.38;;;7.29;100.00
63006;BME280;53704;52.532;6.426;2023-12-28T02:01:26;100793.06;;;7.21;100.00
63006;BME280;53704;52.532;6.426;2023-12-28T02:03:51;100792.94;;;7.32;100.00
63006;BME280;53704;52.532;6.426;2023-12-28T02:06:18;100783.75;;;7.35;100.00
63006;BME280;53704;52.532;6.426;2023-12-28T02:08:44;100796.88;;;7.38;100.00
63006;BME280;53704;52.532;6.426;2023-12-28T02:11:10;100782.91;;;7.44;100.00
63006;BME280;53704;52.532;6.426;2023-12-28T02:13:36;100786.84;;;7.50;100.00
63006;BME280;53704;52.532;6.426;2023-12-28T02:16:36;100780.78;;;7.48;100.00
63006;BME280;53704;52.532;6.426;2023-12-28T02:20:03;100777.50;;;7.54;100.00
63006;BME280;53704;52.532;6.426;2023-12-28T02:22:03;100765.41;;;7.50;100.00
63006;BME280;53704;52.532;6.426;2023-12-28T02:24:29;100773.72;;;7.56;100.00
63006;BME280;53704;52.532;6.426;2023-12-28T02:26:54;100772.00;;;7.55;100.00
63006;BME280;53704;52.532;6.426;2023-12-28T02:29:20;100771.56;;;7.60;100.00
63006;BME280;53704;52.532;6.426;2023-12-28T02:31:51;100777.38;;;7.55;100.00
63006;BME280;53704;52.532;6.426;2023-12-28T02:34:26;100778.50;;;7.63;100.00
63006;BME280;53704;52.532;6.426;2023-12-28T02:36:55;100775.22;;;7.59;100.00
63006;BME280;53704;52.532;6.426;2023-12-28T02:39:22;100776.09;;;7.59;100.00
63006;BME280;53704;52.532;6.426;2023-12-28T02:41:49;100784.25;;;7.68;100.00
63006;BME280;53704;52.532;6.426;2023-12-28T02:44:14;100789.47;;;7.69;100.00
63006;BME280;53704;52.532;6.426;2023-12-28T02:46:40;100784.09;;;7.69;100.00
63006;BME280;53704;52.532;6.426;2023-12-28T02:49:05;100776.66;;;7.63;100.00
63006;BME280;53704;52.532;6.426;2023-12-28T02:51:31;100773.81;;;7.65;100.00
63006;BME280;53704;52.532;6.426;2023-12-28T02:53:56;100763.94;;;7.65;100.00
63006;BME280;53704;52.532;6.426;2023-12-28T02:56:21;100774.38;;;7.68;100.00
63006;BME280;53704;52.532;6.426;2023-12-28T02:58:47;100769.88;;;7.69;100.00
63006;BME280;53704;52.532;6.426;2023-12-28T03:01:13;100770.13;;;7.75;100.00
63006;BME280;53704;52.532;6.426;2023-12-28T03:03:38;100761.69;;;7.70;100.00
63006;BME280;53704;52.532;6.426;2023-12-28T03:06:03;100743.38;;;7.66;100.00
63006;BME280;53704;52.532;6.426;2023-12-28T03:08:29;100746.16;;;7.74;100.00
63006;BME280;53704;52.532;6.426;2023-12-28T03:10:54;100758.41;;;7.76;100.00
63006;BME280;53704;52.532;6.426;2023-12-28T03:13:20;100763.88;;;7.85;100.00
63006;BME280;53704;52.532;6.426;2023-12-28T03:15:46;100755.28;;;7.81;100.00
63006;BME280;53704;52.532;6.426;2023-12-28T03:18:12;100759.91;;;7.89;100.00
63006;BME280;53704;52.532;6.426;2023-12-28T03:20:37;100768.22;;;7.86;100.00
63006;BME280;53704;52.532;6.426;2023-12-28T03:23:03;100768.81;;;7.89;100.00
63006;BME280;53704;52.532;6.426;2023-12-28T03:25:28;100764.97;;;7.92;100.00
63006;BME280;53704;52.532;6.426;2023-12-28T03:27:54;100754.00;;;7.85;100.00
63006;BME280;53704;52.532;6.426;2023-12-28T03:30:20;100743.03;;;7.78;100.00
63006;BME280;53704;52.532;6.426;2023-12-28T03:32:45;100744.69;;;7.89;100.00
63006;BME280;53704;52.532;6.426;2023-12-28T03:35:11;100752.88;;;7.88;100.00
63006;BME280;53704;52.532;6.426;2023-12-28T03:37:36;100742.59;;;7.83;100.00
63006;BME280;53704;52.532;6.426;2023-12-28T03:40:02;100744.00;;;7.77;100.00
63006;BME280;53704;52.532;6.426;2023-12-28T03:42:27;100751.22;;;7.77;100.00
63006;BME280;53704;52.532;6.426;2023-12-28T03:44:53;100756.56;;;7.77;100.00
63006;BME280;53704;52.532;6.426;2023-12-28T03:47:18;100747.84;;;7.75;100.00
63006;BME280;53704;52.532;6.426;2023-12-28T03:49:44;100752.09;;;7.68;100.00
63006;BME280;53704;52.532;6.426;2023-12-28T03:52:09;100757.00;;;7.72;100.00
63006;BME280;53704;52.532;6.426;2023-12-28T03:54:35;100755.59;;;7.78;100.00
63006;BME280;53704;52.532;6.426;2023-12-28T03:57:02;100752.72;;;7.89;100.00
63006;BME280;53704;52.532;6.426;2023-12-28T03:59:28;100753.00;;;7.86;100.00
63006;BME280;53704;52.532;6.426;2023-12-28T04:01:53;100747.50;;;7.88;100.00
63006;BME280;53704;52.532;6.426;2023-12-28T04:04:19;100751.97;;;7.97;100.00
63006;BME280;53704;52.532;6.426;2023-12-28T04:06:44;100748.53;;;8.05;100.00
63006;BME280;53704;52.532;6.426;2023-12-28T04:09:13;100736.88;;;7.96;100.00
63006;BME280;53704;52.532;6.426;2023-12-28T04:11:39;100763.94;;;8.03;100.00
63006;BME280;53704;52.532;6.426;2023-12-28T04:14:04;100741.72;;;8.10;100.00
63006;BME280;53704;52.532;6.426;2023-12-28T04:16:30;100753.34;;;8.01;100.00
63006;BME280;53704;52.532;6.426;2023-12-28T04:18:55;100734.53;;;8.11;100.00
63006;BME280;53704;52.532;6.426;2023-12-28T04:21:21;100739.66;;;8.04;100.00
63006;BME280;53704;52.532;6.426;2023-12-28T04:23:47;100740.63;;;8.03;100.00
63006;BME280;53704;52.532;6.426;2023-12-28T04:26:12;100738.28;;;8.00;100.00
63006;BME280;53704;52.532;6.426;2023-12-28T04:28:38;100726.31;;;7.94;100.00
63006;BME280;53704;52.532;6.426;2023-12-28T04:31:05;100722.22;;;7.90;100.00
63006;BME280;53704;52.532;6.426;2023-12-28T04:33:31;100730.25;;;7.90;100.00
63006;BME280;53704;52.532;6.426;2023-12-28T04:35:57;100729.53;;;7.98;100.00
63006;BME280;53704;52.532;6.426;2023-12-28T04:38:22;100731.00;;;8.10;100.00
63006;BME280;53704;52.532;6.426;2023-12-28T04:40:48;100750.38;;;8.04;100.00
63006;BME280;53704;52.532;6.426;2023-12-28T04:43:13;100741.50;;;8.04;100.00
63006;BME280;53704;52.532;6.426;2023-12-28T04:45:38;100741.44;;;8.13;100.00
63006;BME280;53704;52.532;6.426;2023-12-28T04:48:04;100724.22;;;8.16;100.00
63006;BME280;53704;52.532;6.426;2023-12-28T04:50:30;100728.56;;;8.17;100.00
63006;BME280;53704;52.532;6.426;2023-12-28T04:52:55;100720.97;;;8.12;100.00
63006;BME280;53704;52.532;6.426;2023-12-28T04:55:21;100725.44;;;8.22;100.00
63006;BME280;53704;52.532;6.426;2023-12-28T04:57:46;100721.75;;;8.23;100.00
63006;BME280;53704;52.532;6.426;2023-12-28T05:00:12;100728.66;;;8.25;100.00
63006;BME280;53704;52.532;6.426;2023-12-28T05:02:37;100722.28;;;8.26;100.00
63006;BME280;53704;52.532;6.426;2023-12-28T05:05:03;100709.41;;;8.30;100.00
63006;BME280;53704;52.532;6.426;2023-12-28T05:07:29;100712.97;;;8.30;100.00
63006;BME280;53704;52.532;6.426;2023-12-28T05:09:54;100713.66;;;8.32;100.00
63006;BME280;53704;52.532;6.426;2023-12-28T05:12:19;100712.50;;;8.35;100.00
63006;BME280;53704;52.532;6.426;2023-12-28T05:14:48;100708.81;;;8.36;100.00
63006;BME280;53704;52.532;6.426;2023-12-28T05:17:14;100713.03;;;8.39;100.00
63006;BME280;53704;52.532;6.426;2023-12-28T05:19:39;100717.84;;;8.45;100.00
63006;BME280;53704;52.532;6.426;2023-12-28T05:22:05;100711.59;;;8.44;100.00
63006;BME280;53704;52.532;6.426;2023-12-28T05:24:33;100724.19;;;8.44;100.00
63006;BME280;53704;52.532;6.426;2023-12-28T05:26:59;100711.72;;;8.43;100.00
63006;BME280;53704;52.532;6.426;2023-12-28T05:29:24;100725.97;;;8.53;100.00
63006;BME280;53704;52.532;6.426;2023-12-28T05:31:50;100716.66;;;8.47;100.00
63006;BME280;53704;52.532;6.426;2023-12-28T05:34:15;100726.78;;;8.54;100.00
63006;BME280;53704;52.532;6.426;2023-12-28T05:36:41;100720.59;;;8.53;100.00
63006;BME280;53704;52.532;6.426;2023-12-28T05:39:07;100732.00;;;8.55;100.00
63006;BME280;53704;52.532;6.426;2023-12-28T05:41:37;100731.09;;;8.64;100.00
63006;BME280;53704;52.532;6.426;2023-12-28T05:44:02;100742.13;;;8.61;100.00
63006;BME280;53704;52.532;6.426;2023-12-28T05:46:27;100740.63;;;8.59;100.00
63006;BME280;53704;52.532;6.426;2023-12-28T05:48:53;100737.47;;;8.63;100.00
63006;BME280;53704;52.532;6.426;2023-12-28T05:51:18;100747.19;;;8.64;100.00
63006;BME280;53704;52.532;6.426;2023-12-28T05:53:44;100743.53;;;8.65;100.00
63006;BME280;53704;52.532;6.426;2023-12-28T05:56:09;100743.38;;;8.67;100.00
63006;BME280;53704;52.532;6.426;2023-12-28T05:58:35;100736.91;;;8.60;100.00
63006;BME280;53704;52.532;6.426;2023-12-28T06:01:02;100738.69;;;8.69;100.00
63006;BME280;53704;52.532;6.426;2023-12-28T06:03:30;100742.50;;;8.66;100.00
63006;BME280;53704;52.532;6.426;2023-12-28T06:05:56;100748.66;;;8.77;100.00
63006;BME280;53704;52.532;6.426;2023-12-28T06:08:21;100737.59;;;8.80;100.00
63006;BME280;53704;52.532;6.426;2023-12-28T06:10:47;100729.34;;;8.73;100.00
63006;BME280;53704;52.532;6.426;2023-12-28T06:13:12;100742.16;;;8.79;100.00
63006;BME280;53704;52.532;6.426;2023-12-28T06:15:38;100736.94;;;8.78;100.00
63006;BME280;53704;52.532;6.426;2023-12-28T06:18:04;100734.25;;;8.78;100.00
63006;BME280;53704;52.532;6.426;2023-12-28T06:20:29;100738.28;;;8.82;100.00
63006;BME280;53704;52.532;6.426;2023-12-28T06:22:55;100738.44;;;8.80;100.00
63006;BME280;53704;52.532;6.426;2023-12-28T06:25:21;100743.97;;;8.79;100.00
63006;BME280;53704;52.532;6.426;2023-12-28T06:27:46;100749.56;;;8.85;100.00
63006;BME280;53704;52.532;6.426;2023-12-28T06:30:12;100761.84;;;8.88;100.00
63006;BME280;53704;52.532;6.426;2023-12-28T06:32:38;100748.56;;;8.86;100.00
63006;BME280;53704;52.532;6.426;2023-12-28T06:35:03;100747.06;;;8.84;100.00
63006;BME280;53704;52.532;6.426;2023-12-28T06:37:29;100743.41;;;8.93;100.00
63006;BME280;53704;52.532;6.426;2023-12-28T06:39:54;100744.59;;;8.91;100.00
63006;BME280;53704;52.532;6.426;2023-12-28T06:42:20;100749.03;;;9.00;100.00
63006;BME280;53704;52.532;6.426;2023-12-28T06:44:45;100732.31;;;8.88;100.00
63006;BME280;53704;52.532;6.426;2023-12-28T06:47:11;100734.78;;;8.81;100.00
63006;BME280;53704;52.532;6.426;2023-12-28T06:49:36;100730.44;;;8.88;100.00
63006;BME280;53704;52.532;6.426;2023-12-28T06:52:02;100731.00;;;8.92;100.00
63006;BME280;53704;52.532;6.426;2023-12-28T06:54:27;100723.56;;;8.86;100.00
63006;BME280;53704;52.532;6.426;2023-12-28T06:56:53;100747.34;;;8.81;100.00
63006;BME280;53704;52.532;6.426;2023-12-28T06:59:18;100732.97;;;8.90;100.00
63006;BME280;53704;52.532;6.426;2023-12-28T07:01:44;100745.09;;;8.94;100.00
63006;BME280;53704;52.532;6.426;2023-12-28T07:04:10;100752.03;;;8.97;100.00
63006;BME280;53704;52.532;6.426;2023-12-28T07:06:35;100750.84;;;8.99;100.00
63006;BME280;53704;52.532;6.426;2023-12-28T07:09:01;100771.34;;;9.00;100.00
63006;BME280;53704;52.532;6.426;2023-12-28T07:11:27;100767.13;;;8.98;100.00
63006;BME280;53704;52.532;6.426;2023-12-28T07:13:53;100766.66;;;9.02;100.00
63006;BME280;53704;52.532;6.426;2023-12-28T07:16:21;100762.31;;;9.01;100.00
63006;BME280;53704;52.532;6.426;2023-12-28T07:18:46;100773.88;;;9.02;100.00
63006;BME280;53704;52.532;6.426;2023-12-28T07:21:11;100784.91;;;8.99;100.00
63006;BME280;53704;52.532;6.426;2023-12-28T07:23:37;100784.97;;;9.07;100.00
63006;BME280;53704;52.532;6.426;2023-12-28T07:26:03;100786.31;;;9.03;100.00
63006;BME280;53704;52.532;6.426;2023-12-28T07:28:29;100790.66;;;9.04;100.00
63006;BME280;53704;52.532;6.426;2023-12-28T07:30:55;100799.25;;;9.08;100.00
63006;BME280;53704;52.532;6.426;2023-12-28T07:33:20;100800.56;;;9.03;100.00
63006;BME280;53704;52.532;6.426;2023-12-28T07:35:46;100813.63;;;8.98;100.00
63006;BME280;53704;52.532;6.426;2023-12-28T07:38:11;100800.41;;;9.05;100.00
63006;BME280;53704;52.532;6.426;2023-12-28T07:40:37;100807.78;;;9.03;100.00
63006;BME280;53704;52.532;6.426;2023-12-28T07:43:03;100807.47;;;9.06;100.00
63006;BME280;53704;52.532;6.426;2023-12-28T07:45:29;100819.06;;;9.07;100.00
63006;BME280;53704;52.532;6.426;2023-12-28T07:47:54;100822.59;;;9.07;100.00
63006;BME280;53704;52.532;6.426;2023-12-28T07:50:20;100813.31;;;9.01;100.00
63006;BME280;53704;52.532;6.426;2023-12-28T07:52:46;100813.69;;;9.07;100.00
63006;BME280;53704;52.532;6.426;2023-12-28T07:55:12;100809.84;;;9.09;100.00
63006;BME280;53704;52.532;6.426;2023-12-28T07:57:38;100822.59;;;9.07;100.00
63006;BME280;53704;52.532;6.426;2023-12-28T08:00:04;100841.91;;;9.11;100.00
63006;BME280;53704;52.532;6.426;2023-12-28T08:02:30;100847.13;;;9.12;100.00
63006;BME280;53704;52.532;6.426;2023-12-28T08:04:56;100849.66;;;9.14;100.00
63006;BME280;53704;52.532;6.426;2023-12-28T08:07:21;100849.66;;;9.14;100.00
63006;BME280;53704;52.532;6.426;2023-12-28T08:09:47;100848.00;;;9.13;100.00
63006;BME280;53704;52.532;6.426;2023-12-28T08:12:12;100859.72;;;9.12;100.00
63006;BME280;53704;52.532;6.426;2023-12-28T08:14:38;100865.94;;;9.12;100.00
63006;BME280;53704;52.532;6.426;2023-12-28T08:17:03;100861.78;;;9.18;100.00
63006;BME280;53704;52.532;6.426;2023-12-28T08:19:29;100856.28;;;9.19;100.00
63006;BME280;53704;52.532;6.426;2023-12-28T08:21:54;100851.34;;;9.15;100.00
63006;BME280;53704;52.532;6.426;2023-12-28T08:24:20;100854.56;;;9.18;100.00
63006;BME280;53704;52.532;6.426;2023-12-28T08:26:45;100854.88;;;9.15;100.00
63006;BME280;53704;52.532;6.426;2023-12-28T08:29:11;100848.28;;;9.28;100.00
63006;BME280;53704;52.532;6.426;2023-12-28T08:31:36;100850.13;;;9.27;100.00
63006;BME280;53704;52.532;6.426;2023-12-28T08:34:02;100844.22;;;9.23;100.00
63006;BME280;53704;52.532;6.426;2023-12-28T08:36:27;100842.22;;;9.26;100.00
63006;BME280;53704;52.532;6.426;2023-12-28T08:38:53;100851.78;;;9.28;100.00
63006;BME280;53704;52.532;6.426;2023-12-28T08:41:20;100837.84;;;9.24;100.00
63006;BME280;53704;52.532;6.426;2023-12-28T08:43:46;100838.91;;;9.32;100.00
63006;BME280;53704;52.532;6.426;2023-12-28T08:46:12;100833.84;;;9.29;100.00
63006;BME280;53704;52.532;6.426;2023-12-28T08:48:38;100830.31;;;9.28;100.00
63006;BME280;53704;52.532;6.426;2023-12-28T08:51:03;100837.00;;;9.24;100.00
63006;BME280;53704;52.532;6.426;2023-12-28T08:53:29;100851.13;;;9.26;100.00
63006;BME280;53704;52.532;6.426;2023-12-28T08:55:54;100849.75;;;9.22;100.00
63006;BME280;53704;52.532;6.426;2023-12-28T08:58:20;100861.88;;;9.26;100.00
63006;BME280;53704;52.532;6.426;2023-12-28T09:00:45;100857.34;;;9.27;100.00
63006;BME280;53704;52.532;6.426;2023-12-28T09:03:12;100868.09;;;9.27;100.00
63006;BME280;53704;52.532;6.426;2023-12-28T09:05:37;100860.56;;;9.30;100.00
63006;BME280;53704;52.532;6.426;2023-12-28T09:08:03;100873.94;;;9.22;100.00
63006;BME280;53704;52.532;6.426;2023-12-28T09:10:29;100879.69;;;9.27;100.00
63006;BME280;53704;52.532;6.426;2023-12-28T09:12:54;100878.66;;;9.28;100.00
63006;BME280;53704;52.532;6.426;2023-12-28T09:15:20;100871.16;;;9.32;100.00
63006;BME280;53704;52.532;6.426;2023-12-28T09:17:45;100869.78;;;9.28;100.00
63006;BME280;53704;52.532;6.426;2023-12-28T09:20:13;100871.31;;;9.30;100.00
63006;BME280;53704;52.532;6.426;2023-12-28T09:22:38;100876.31;;;9.25;100.00
63006;BME280;53704;52.532;6.426;2023-12-28T09:25:04;100870.28;;;9.31;100.00
63006;BME280;53704;52.532;6.426;2023-12-28T09:27:30;100883.56;;;9.33;100.00
63006;BME280;53704;52.532;6.426;2023-12-28T09:29:56;100899.84;;;9.31;100.00
63006;BME280;53704;52.532;6.426;2023-12-28T09:32:21;100896.84;;;9.34;100.00
63006;BME280;53704;52.532;6.426;2023-12-28T09:34:47;100884.13;;;9.36;100.00
63006;BME280;53704;52.532;6.426;2023-12-28T09:37:12;100885.81;;;9.37;100.00
63006;BME280;53704;52.532;6.426;2023-12-28T09:39:38;100901.63;;;9.40;100.00
63006;BME280;53704;52.532;6.426;2023-12-28T09:42:09;100896.53;;;9.37;100.00
63006;BME280;53704;52.532;6.426;2023-12-28T09:44:42;100896.84;;;9.34;100.00
63006;BME280;53704;52.532;6.426;2023-12-28T09:47:09;100899.22;;;9.37;100.00
63006;BME280;53704;52.532;6.426;2023-12-28T09:49:38;100892.19;;;9.36;100.00
63006;BME280;53704;52.532;6.426;2023-12-28T09:52:06;100904.22;;;9.32;100.00
63006;BME280;53704;52.532;6.426;2023-12-28T09:54:31;100912.66;;;9.37;100.00
63006;BME280;53704;52.532;6.426;2023-12-28T09:56:57;100889.50;;;9.36;100.00
63006;BME280;53704;52.532;6.426;2023-12-28T09:59:24;100917.88;;;9.39;100.00
63006;BME280;53704;52.532;6.426;2023-12-28T10:01:49;100908.53;;;9.43;100.00
63006;BME280;53704;52.532;6.426;2023-12-28T10:04:16;100918.91;;;9.38;100.00
63006;BME280;53704;52.532;6.426;2023-12-28T10:06:41;100921.97;;;9.43;100.00
63006;BME280;53704;52.532;6.426;2023-12-28T10:09:10;100913.22;;;9.41;100.00
63006;BME280;53704;52.532;6.426;2023-12-28T10:11:36;100913.75;;;9.45;100.00
63006;BME280;53704;52.532;6.426;2023-12-28T10:14:02;100911.53;;;9.40;100.00
63006;BME280;53704;52.532;6.426;2023-12-28T10:16:29;100906.38;;;9.47;100.00
63006;BME280;53704;52.532;6.426;2023-12-28T10:18:55;100913.91;;;9.43;100.00
63006;BME280;53704;52.532;6.426;2023-12-28T10:21:23;100919.81;;;9.47;100.00
63006;BME280;53704;52.532;6.426;2023-12-28T10:23:49;100915.19;;;9.39;100.00
63006;BME280;53704;52.532;6.426;2023-12-28T10:26:17;100906.47;;;9.37;100.00
63006;BME280;53704;52.532;6.426;2023-12-28T10:28:43;100921.66;;;9.46;100.00
63006;BME280;53704;52.532;6.426;2023-12-28T10:31:09;100915.13;;;9.49;100.00
63006;BME280;53704;52.532;6.426;2023-12-28T10:33:35;100913.28;;;9.49;100.00
63006;BME280;53704;52.532;6.426;2023-12-28T10:36:05;100922.72;;;9.53;100.00
63006;BME280;53704;52.532;6.426;2023-12-28T10:38:36;100924.88;;;9.50;100.00
63006;BME280;53704;52.532;6.426;2023-12-28T10:41:05;100916.81;;;9.50;100.00
63006;BME280;53704;52.532;6.426;2023-12-28T10:43:36;100917.91;;;9.57;100.00
63006;BME280;53704;52.532;6.426;2023-12-28T10:46:08;100918.22;;;9.54;100.00
63006;BME280;53704;52.532;6.426;2023-12-28T10:48:38;100922.56;;;9.55;100.00
63006;BME280;53704;52.532;6.426;2023-12-28T10:51:11;100908.13;;;9.56;100.00
63006;BME280;53704;52.532;6.426;2023-12-28T10:54:02;100908.81;;;9.58;100.00
63006;BME280;53704;52.532;6.426;2023-12-28T10:56:50;100913.56;;;9.64;100.00
63006;BME280;53704;52.532;6.426;2023-12-28T11:01:51;100910.88;;;9.64;100.00
63006;BME280;53704;52.532;6.426;2023-12-28T11:06:56;100912.13;;;9.70;100.00
63006;BME280;53704;52.532;6.426;2023-12-28T11:09:22;100909.59;;;9.68;100.00
63006;BME280;53704;52.532;6.426;2023-12-28T11:11:50;100898.31;;;9.65;100.00
63006;BME280;53704;52.532;6.426;2023-12-28T11:14:17;100920.28;;;9.60;100.00
63006;BME280;53704;52.532;6.426;2023-12-28T11:16:44;100913.88;;;9.61;100.00
63006;BME280;53704;52.532;6.426;2023-12-28T11:19:10;100910.97;;;9.54;100.00
63006;BME280;53704;52.532;6.426;2023-12-28T11:21:37;100916.34;;;9.54;100.00
63006;BME280;53704;52.532;6.426;2023-12-28T11:24:04;100909.44;;;9.52;100.00
63006;BME280;53704;52.532;6.426;2023-12-28T11:26:30;100913.97;;;9.51;100.00
63006;BME280;53704;52.532;6.426;2023-12-28T11:29:03;100929.88;;;9.45;100.00
63006;BME280;53704;52.532;6.426;2023-12-28T11:31:32;100918.34;;;9.34;100.00
63006;BME280;53704;52.532;6.426;2023-12-28T11:34:00;100931.41;;;9.11;100.00
63006;BME280;53704;52.532;6.426;2023-12-28T11:36:32;100922.53;;;9.01;100.00
63006;BME280;53704;52.532;6.426;2023-12-28T11:39:05;100914.66;;;8.99;100.00
63006;BME280;53704;52.532;6.426;2023-12-28T11:41:36;100918.56;;;9.05;100.00
63006;BME280;53704;52.532;6.426;2023-12-28T11:44:05;100915.88;;;9.05;100.00
63006;BME280;53704;52.532;6.426;2023-12-28T11:46:31;100919.56;;;9.04;100.00
63006;BME280;53704;52.532;6.426;2023-12-28T11:49:07;100911.44;;;9.14;100.00
63006;BME280;53704;52.532;6.426;2023-12-28T11:51:35;100907.84;;;9.23;100.00
63006;BME280;53704;52.532;6.426;2023-12-28T11:54:02;100906.84;;;9.24;100.00
63006;BME280;53704;52.532;6.426;2023-12-28T11:56:29;100903.78;;;9.19;100.00
63006;BME280;53704;52.532;6.426;2023-12-28T11:58:55;100898.47;;;9.27;100.00
63006;BME280;53704;52.532;6.426;2023-12-28T12:01:20;100904.00;;;9.26;100.00
63006;BME280;53704;52.532;6.426;2023-12-28T12:03:46;100893.47;;;9.32;100.00
63006;BME280;53704;52.532;6.426;2023-12-28T12:06:11;100911.47;;;9.32;100.00
63006;BME280;53704;52.532;6.426;2023-12-28T12:08:36;100899.63;;;9.43;100.00
63006;BME280;53704;52.532;6.426;2023-12-28T12:11:04;100900.47;;;9.43;100.00
63006;BME280;53704;52.532;6.426;2023-12-28T12:13:31;100898.31;;;9.47;100.00
63006;BME280;53704;52.532;6.426;2023-12-28T12:15:57;100890.25;;;9.47;100.00
63006;BME280;53704;52.532;6.426;2023-12-28T12:18:23;100889.09;;;9.49;100.00
63006;BME280;53704;52.532;6.426;2023-12-28T12:20:49;100896.25;;;9.58;100.00
63006;BME280;53704;52.532;6.426;2023-12-28T12:23:15;100892.16;;;9.54;100.00
63006;BME280;53704;52.532;6.426;2023-12-28T12:25:41;100883.78;;;9.57;100.00
63006;BME280;53704;52.532;6.426;2023-12-28T12:28:06;100885.91;;;9.72;100.00
63006;BME280;53704;52.532;6.426;2023-12-28T12:30:33;100890.94;;;9.67;100.00
63006;BME280;53704;52.532;6.426;2023-12-28T12:32:59;100876.84;;;9.73;100.00
63006;BME280;53704;52.532;6.426;2023-12-28T12:35:25;100873.31;;;9.72;100.00
63006;BME280;53704;52.532;6.426;2023-12-28T12:37:51;100878.38;;;9.75;100.00
63006;BME280;53704;52.532;6.426;2023-12-28T12:40:17;100876.91;;;9.81;100.00
63006;BME280;53704;52.532;6.426;2023-12-28T12:42:54;100871.63;;;9.71;100.00
63006;BME280;53704;52.532;6.426;2023-12-28T12:45:20;100886.13;;;9.78;100.00
63006;BME280;53704;52.532;6.426;2023-12-28T12:47:47;100853.19;;;9.76;100.00
63006;BME280;53704;52.532;6.426;2023-12-28T12:50:15;100861.25;;;9.76;100.00
63006;BME280;53704;52.532;6.426;2023-12-28T12:52:42;100862.09;;;9.77;100.00